METAR Data
IDs: Format: Raw Decoded Include TAF

Data at: 1206 UTC 26 Feb 2021

KI68 261115Z AUTO 08006KT 10SM CLR M01/M02 A3033 RMK AO1 T10101016